Aérodrome :
LOGIN :

S'inscrire | Disclaimer

   EN    FR    IT 

 










Légende :    VFR   VFR Marginal   IFR   IFR Intensif   IFR Très Intensif
Visi : 
Plafond : 
>= 8 km
>= 3000ft
5 à 8 km
1000 à 3000 ft
1500m à 5 km
500 à 1000 ft
800 à 1500m
200 à 500 ft
< 800m
< 200 ft
Symboles :   Orages  Brouillard  Fortes neiges  Fortes précipitations  Vent > 20 kt
SIGMETs :   Divers  Orages  Givrage  Turbulence  Onde Orograph.  Cendres Volcan.






- Altitude de l'aérodrome : 102 ft
- Code IATA : CNG


LFBG - Cognac

DERNIER METAR :
  • 230300Z AUTO 04009KT 9999 BKN021/// BKN060/// OVC078/// ///TCU 13/12 Q1009

METARs EXPIRÉS :
  • 230230Z AUTO 04007KT 9999 -RA BKN023/// OVC074/// ///TCU 13/12 Q1009
  • 230200Z AUTO 03006KT 9999 BKN028 OVC035 13/12 Q1010
  • 230130Z AUTO 03005KT 9999 OVC030 13/12 Q1010
  • 230100Z AUTO 04007KT 9999 OVC034 13/12 Q1010
  • 230030Z AUTO 04009KT 9999 BKN038 BKN066 13/12 Q1010

TAF TAF LFBG
Valide du 22 à 21h jusqu'au 23 à 21h UTC


222000Z 2221/2321 03010KT 9999 BKN045



MET'MAP, la Météo Aéronautique d'un coup d'oeil ! - Copyright ORBIFLY Décembre 2007 - Disclaimer

ORBIFLY MET'MAP TEAM :

Programmation & Développement : Alexandra Zaïnal
Conception & Développement : Baudouin d'Aumeries
Co-Programmation & Développement : Marc-Olivier Méhu
Soutien technique & logistique : Manuel Goepfert

Contact : metmap@orbifly.com




SOURCES & CREDITS :

   NOAA